createdAt,value
2023-04-07T00:00:59.517Z,5.90
2023-04-07T00:03:30.487Z,5.90
2023-04-07T00:05:58.545Z,5.91
2023-04-07T00:08:28.029Z,5.92
2023-04-07T00:10:55.586Z,5.91
2023-04-07T00:13:27.919Z,5.90
2023-04-07T00:15:55.346Z,5.89
2023-04-07T00:18:28.044Z,5.84
2023-04-07T00:20:55.192Z,5.80
2023-04-07T00:23:22.376Z,5.76
2023-04-07T00:25:51.296Z,5.73
2023-04-07T00:28:22.246Z,5.68
2023-04-07T00:30:52.115Z,5.64
2023-04-07T00:33:22.906Z,5.61
2023-04-07T00:35:52.350Z,5.58
2023-04-07T00:38:24.139Z,5.56
2023-04-07T00:40:59.107Z,5.54
2023-04-07T00:43:31.757Z,5.50
2023-04-07T00:46:01.185Z,5.47
2023-04-07T00:48:31.339Z,5.45
2023-04-07T00:51:00.448Z,5.43
2023-04-07T00:53:32.875Z,5.41
2023-04-07T00:56:00.775Z,5.41
2023-04-07T00:58:31.905Z,5.42
2023-04-07T01:01:01.141Z,5.40
2023-04-07T01:03:35.717Z,5.37
2023-04-07T01:06:06.361Z,5.35
2023-04-07T01:08:55.542Z,5.31
2023-04-07T01:11:37.710Z,5.28
2023-04-07T01:14:06.249Z,5.25
2023-04-07T01:16:53.075Z,5.24
2023-04-07T01:19:34.521Z,5.24
2023-04-07T01:22:28.230Z,5.26
2023-04-07T01:25:30.237Z,5.26
2023-04-07T01:28:04.202Z,5.26
2023-04-07T01:30:39.023Z,5.23
2023-04-07T01:33:07.389Z,5.19
2023-04-07T01:35:36.718Z,5.15
2023-04-07T01:38:05.770Z,5.12
2023-04-07T01:40:33.844Z,5.09
2023-04-07T01:43:03.305Z,5.04
2023-04-07T01:45:31.628Z,5.00
2023-04-07T01:48:01.333Z,4.97
2023-04-07T01:50:30.329Z,4.93
2023-04-07T01:53:05.637Z,4.88
2023-04-07T01:55:33.623Z,4.85
2023-04-07T01:58:07.312Z,4.82
2023-04-07T02:00:37.671Z,4.80
2023-04-07T02:03:20.433Z,4.78
2023-04-07T02:05:53.035Z,4.77
2023-04-07T02:08:24.211Z,4.76
2023-04-07T02:10:55.419Z,4.77
2023-04-07T02:13:24.286Z,4.78
2023-04-07T02:15:51.596Z,4.78
2023-04-07T02:18:19.461Z,4.78
2023-04-07T02:20:48.184Z,4.78
2023-04-07T02:23:15.804Z,4.78
2023-04-07T02:25:45.916Z,4.79
2023-04-07T02:28:15.358Z,4.79
2023-04-07T02:30:43.600Z,4.78
2023-04-07T02:33:15.197Z,4.78
2023-04-07T02:35:44.084Z,4.79
2023-04-07T02:38:12.213Z,4.81
2023-04-07T02:40:40.513Z,4.81
2023-04-07T02:43:09.735Z,4.80
2023-04-07T02:45:37.731Z,4.81
2023-04-07T02:48:17.800Z,4.81
2023-04-07T02:50:53.672Z,4.81
2023-04-07T02:53:23.571Z,4.81
2023-04-07T02:55:51.789Z,4.80
2023-04-07T02:58:21.135Z,4.78
2023-04-07T03:01:11.309Z,4.74
2023-04-07T03:03:44.950Z,4.70
2023-04-07T03:06:16.062Z,4.69
2023-04-07T03:08:52.519Z,4.70
2023-04-07T03:11:20.161Z,4.71
2023-04-07T03:13:49.070Z,4.70
2023-04-07T03:16:17.149Z,4.72
2023-04-07T03:18:58.637Z,4.73
2023-04-07T03:21:30.792Z,4.73
2023-04-07T03:24:00.778Z,4.73
2023-04-07T03:26:28.174Z,4.72
2023-04-07T03:28:56.289Z,4.71
2023-04-07T03:31:24.525Z,4.71
2023-04-07T03:33:52.939Z,4.70
2023-04-07T03:36:24.324Z,4.69
2023-04-07T03:38:54.302Z,4.69
2023-04-07T03:41:21.683Z,4.68
2023-04-07T03:43:56.791Z,4.66
2023-04-07T03:46:27.203Z,4.64
2023-04-07T03:48:57.250Z,4.60
2023-04-07T03:51:24.658Z,4.56
2023-04-07T03:53:55.861Z,4.54
2023-04-07T03:56:31.444Z,4.52
2023-04-07T03:59:00.444Z,4.53
2023-04-07T04:01:33.498Z,4.52
2023-04-07T04:04:08.005Z,4.51
2023-04-07T04:06:36.973Z,4.48
2023-04-07T04:09:11.129Z,4.48
2023-04-07T04:11:42.265Z,4.49
2023-04-07T04:14:10.593Z,4.50
2023-04-07T04:16:39.162Z,4.52
2023-04-07T04:19:13.593Z,4.52
2023-04-07T04:21:43.405Z,4.54
2023-04-07T04:24:14.022Z,4.56
2023-04-07T04:26:41.487Z,4.56
2023-04-07T04:29:12.490Z,4.57
2023-04-07T04:31:41.839Z,4.57
2023-04-07T04:34:09.275Z,4.60
2023-04-07T04:36:38.384Z,4.64
2023-04-07T04:39:06.821Z,4.67
2023-04-07T04:41:36.232Z,4.72
2023-04-07T04:44:03.800Z,4.76
2023-04-07T04:46:34.461Z,4.79
2023-04-07T04:49:04.531Z,4.83
2023-04-07T04:51:32.007Z,4.87
2023-04-07T04:54:05.741Z,4.92
2023-04-07T04:56:35.170Z,4.97
2023-04-07T04:59:05.966Z,5.03
2023-04-07T05:01:51.961Z,5.11
2023-04-07T05:04:23.061Z,5.20
2023-04-07T05:06:58.231Z,5.29
2023-04-07T05:09:32.453Z,5.36
2023-04-07T05:12:01.532Z,5.36
2023-04-07T05:14:31.485Z,5.40
2023-04-07T05:17:03.378Z,5.48
2023-04-07T05:19:31.783Z,5.58
2023-04-07T05:22:04.436Z,5.72
2023-04-07T05:24:35.001Z,5.83
2023-04-07T05:27:02.592Z,5.94
2023-04-07T05:29:34.640Z,6.05
2023-04-07T05:32:06.085Z,6.15
2023-04-07T05:34:35.068Z,6.28
2023-04-07T05:37:16.348Z,6.46
2023-04-07T05:39:45.410Z,6.58
2023-04-07T05:42:15.476Z,6.76
2023-04-07T05:44:44.067Z,6.94
2023-04-07T05:47:14.204Z,7.11
2023-04-07T05:49:45.512Z,7.28
2023-04-07T05:52:14.388Z,7.46
2023-04-07T05:54:44.110Z,7.58
2023-04-07T05:57:13.351Z,7.68
2023-04-07T05:59:43.481Z,7.84
2023-04-07T06:02:11.406Z,8.08
2023-04-07T06:04:39.671Z,8.31
2023-04-07T06:07:08.584Z,8.52
2023-04-07T06:09:35.768Z,8.77
2023-04-07T06:12:04.725Z,9.03
2023-04-07T06:14:32.775Z,9.30
2023-04-07T06:17:02.882Z,9.62
2023-04-07T06:19:39.800Z,10.00
2023-04-07T06:22:07.425Z,10.32
2023-04-07T06:24:35.325Z,10.59
2023-04-07T06:27:04.520Z,10.77
2023-04-07T06:29:33.496Z,10.96
2023-04-07T06:32:02.716Z,11.30
2023-04-07T06:34:30.674Z,11.67
2023-04-07T06:37:00.348Z,12.10
2023-04-07T06:39:30.715Z,12.46
2023-04-07T06:42:01.983Z,12.69
2023-04-07T06:44:29.188Z,12.92
2023-04-07T06:46:57.350Z,13.11
2023-04-07T06:49:26.253Z,13.39
2023-04-07T06:51:53.250Z,13.67
2023-04-07T06:54:20.968Z,13.82
2023-04-07T06:56:53.617Z,13.91
2023-04-07T06:59:22.480Z,14.07
2023-04-07T07:01:50.944Z,14.33
2023-04-07T07:04:19.713Z,14.56
2023-04-07T07:06:48.273Z,14.78
2023-04-07T07:09:15.670Z,15.06
2023-04-07T07:11:54.052Z,15.25
2023-04-07T07:14:21.656Z,15.36
2023-04-07T07:16:48.744Z,15.43
2023-04-07T07:19:17.032Z,15.43
2023-04-07T07:21:44.080Z,15.52
2023-04-07T07:24:12.669Z,15.64
2023-04-07T07:26:42.288Z,15.88
2023-04-07T07:29:11.315Z,16.19
2023-04-07T07:31:41.343Z,16.39
2023-04-07T07:34:17.063Z,16.50
2023-04-07T07:36:47.460Z,16.60
2023-04-07T07:39:23.657Z,16.66
2023-04-07T07:41:50.933Z,16.68
2023-04-07T07:44:23.193Z,16.76
2023-04-07T07:46:50.797Z,16.89
2023-04-07T07:49:19.353Z,16.84
2023-04-07T07:51:54.324Z,16.65
2023-04-07T07:54:25.287Z,16.64
2023-04-07T07:56:53.126Z,16.64
2023-04-07T07:59:23.169Z,16.64
2023-04-07T08:02:01.941Z,16.76
2023-04-07T08:04:35.698Z,17.12
2023-04-07T08:07:04.078Z,17.48
2023-04-07T08:09:35.269Z,17.57
2023-04-07T08:12:11.304Z,17.70
2023-04-07T08:14:43.233Z,17.83
2023-04-07T08:17:18.609Z,17.88
2023-04-07T08:19:51.140Z,17.91
2023-04-07T08:22:20.693Z,17.97
2023-04-07T08:24:49.871Z,18.09
2023-04-07T08:27:20.864Z,18.27
2023-04-07T08:30:07.184Z,18.43
2023-04-07T08:33:01.604Z,18.68
2023-04-07T08:35:31.820Z,19.01
2023-04-07T08:37:59.771Z,18.99
2023-04-07T08:40:43.423Z,18.93
2023-04-07T08:43:11.108Z,19.27
2023-04-07T08:45:39.974Z,19.70
2023-04-07T08:48:17.397Z,20.00
2023-04-07T08:50:45.596Z,20.24
2023-04-07T08:53:14.195Z,20.12
2023-04-07T08:55:42.115Z,19.88
2023-04-07T08:58:12.923Z,19.80
2023-04-07T09:00:42.481Z,20.07
2023-04-07T09:03:21.477Z,20.55
2023-04-07T09:05:50.868Z,20.95
2023-04-07T09:08:18.187Z,21.25
2023-04-07T09:10:53.139Z,21.40
2023-04-07T09:13:20.597Z,21.55
2023-04-07T09:15:51.220Z,21.55
2023-04-07T09:18:20.399Z,21.56
2023-04-07T09:21:00.989Z,21.65
2023-04-07T09:23:35.180Z,21.76
2023-04-07T09:26:25.125Z,21.76
2023-04-07T09:29:02.721Z,21.78
2023-04-07T09:31:48.334Z,21.79
2023-04-07T09:34:36.197Z,21.69
2023-04-07T09:37:06.609Z,21.76
2023-04-07T09:39:56.516Z,22.02
2023-04-07T09:42:31.818Z,22.58
2023-04-07T09:45:01.745Z,23.09
2023-04-07T09:47:30.460Z,23.33
2023-04-07T09:50:01.562Z,23.48
2023-04-07T09:52:59.171Z,23.61
2023-04-07T09:55:26.713Z,23.90
2023-04-07T09:57:57.385Z,24.17
2023-04-07T10:00:26.036Z,24.55
2023-04-07T10:02:55.687Z,24.92
2023-04-07T10:05:25.397Z,24.97
2023-04-07T10:07:57.779Z,24.52
2023-04-07T10:10:28.193Z,24.19
2023-04-07T10:12:56.924Z,24.06
2023-04-07T10:15:24.662Z,23.92
2023-04-07T10:17:52.763Z,23.76
2023-04-07T10:20:23.224Z,23.56
2023-04-07T10:22:51.479Z,23.39
2023-04-07T10:25:25.587Z,23.35
2023-04-07T10:28:04.653Z,23.59
2023-04-07T10:30:35.331Z,23.62
2023-04-07T10:33:18.396Z,23.84
2023-04-07T10:36:08.171Z,24.21
2023-04-07T10:41:56.906Z,24.50
2023-04-07T10:44:46.349Z,24.24
2023-04-07T10:47:13.834Z,23.76
2023-04-07T10:49:41.736Z,23.20
2023-04-07T10:52:11.650Z,22.53
2023-04-07T10:54:41.091Z,21.99
2023-04-07T10:57:09.911Z,21.47
2023-04-07T10:59:40.504Z,21.14
2023-04-07T11:02:17.081Z,20.79
2023-04-07T11:04:46.502Z,20.41
2023-04-07T11:07:14.173Z,20.07
2023-04-07T11:09:43.964Z,19.87
2023-04-07T11:12:24.493Z,19.77
2023-04-07T11:14:53.660Z,19.98
2023-04-07T11:17:25.161Z,20.33
2023-04-07T11:19:57.698Z,20.67
2023-04-07T11:22:30.366Z,20.75
2023-04-07T11:24:58.741Z,21.06
2023-04-07T11:27:28.056Z,21.67
2023-04-07T11:29:57.948Z,22.51
2023-04-07T11:32:27.483Z,23.35
2023-04-07T11:34:59.075Z,24.00
2023-04-07T11:37:35.802Z,24.49
2023-04-07T11:40:03.913Z,24.79
2023-04-07T11:42:40.854Z,24.75
2023-04-07T11:45:20.188Z,24.53
2023-04-07T11:47:51.875Z,24.12
2023-04-07T11:50:41.785Z,23.85
2023-04-07T11:53:09.515Z,23.77
2023-04-07T11:55:38.275Z,23.62
2023-04-07T11:58:09.498Z,23.47
2023-04-07T12:00:56.824Z,23.57
2023-04-07T12:03:27.004Z,23.60
2023-04-07T12:06:00.884Z,23.42
2023-04-07T12:08:40.884Z,23.07
2023-04-07T12:11:09.832Z,22.51
2023-04-07T12:16:32.022Z,21.55
2023-04-07T12:22:07.492Z,20.59
2023-04-07T12:24:35.628Z,20.24
2023-04-07T12:27:03.382Z,19.87
2023-04-07T12:29:38.385Z,19.43
2023-04-07T12:32:05.742Z,19.02
2023-04-07T12:47:55.836Z,18.43
2023-04-07T12:50:36.028Z,17.98
2023-04-07T12:53:05.864Z,17.65
2023-04-07T12:55:38.778Z,17.43
2023-04-07T12:58:09.790Z,17.34
2023-04-07T13:00:39.631Z,17.29
2023-04-07T13:03:13.213Z,17.18
2023-04-07T13:05:42.332Z,17.09
2023-04-07T13:08:14.076Z,17.00
2023-04-07T13:10:44.067Z,16.86
2023-04-07T13:13:21.881Z,16.79
2023-04-07T13:15:53.725Z,16.85
2023-04-07T13:18:22.610Z,16.94
2023-04-07T13:21:14.342Z,16.96
2023-04-07T13:23:46.713Z,16.98
2023-04-07T13:26:17.174Z,17.01
2023-04-07T13:28:46.314Z,17.02
2023-04-07T13:31:16.691Z,17.00
2023-04-07T13:33:48.081Z,16.99
2023-04-07T13:36:17.373Z,16.90
2023-04-07T13:38:47.761Z,16.68
2023-04-07T13:41:17.103Z,16.43
2023-04-07T13:43:52.140Z,16.30
2023-04-07T13:46:28.481Z,16.14
2023-04-07T13:48:58.037Z,15.92
2023-04-07T13:51:28.295Z,15.76
2023-04-07T13:53:58.243Z,15.60
2023-04-07T13:56:28.197Z,15.44
2023-04-07T13:58:57.122Z,15.28
2023-04-07T14:01:26.860Z,15.16
2023-04-07T14:03:58.000Z,15.07
2023-04-07T14:06:29.665Z,15.04
2023-04-07T14:08:58.716Z,15.10
2023-04-07T14:11:29.007Z,15.24
2023-04-07T14:13:59.275Z,15.41
2023-04-07T14:16:28.879Z,15.53
2023-04-07T14:18:59.271Z,15.57
2023-04-07T14:21:28.726Z,15.65
2023-04-07T14:23:58.045Z,15.69
2023-04-07T14:26:27.429Z,15.75
2023-04-07T14:28:59.368Z,15.81
2023-04-07T14:37:28.702Z,15.73
2023-04-07T14:42:38.811Z,15.72
2023-04-07T14:45:09.230Z,15.71
2023-04-07T14:47:39.013Z,15.66
2023-04-07T14:50:08.146Z,15.61
2023-04-07T14:52:49.816Z,15.57
2023-04-07T14:55:19.003Z,15.52
2023-04-07T14:57:48.635Z,15.36
2023-04-07T15:00:18.363Z,15.21
2023-04-07T15:03:07.263Z,15.09
2023-04-07T15:05:39.597Z,14.98
2023-04-07T15:08:08.866Z,14.90
2023-04-07T15:10:39.499Z,14.79
2023-04-07T15:13:08.178Z,14.64
2023-04-07T15:15:36.626Z,14.55
2023-04-07T15:18:10.536Z,14.55
2023-04-07T15:20:39.068Z,14.56
2023-04-07T15:23:11.073Z,14.55
2023-04-07T15:25:41.126Z,14.49
2023-04-07T15:28:09.604Z,14.42
2023-04-07T15:30:42.491Z,14.38
2023-04-07T15:33:15.524Z,14.33
2023-04-07T15:35:48.885Z,14.27
2023-04-07T15:38:20.511Z,14.12
2023-04-07T15:40:49.637Z,14.03
2023-04-07T15:43:20.578Z,14.02
2023-04-07T15:45:50.673Z,13.99
2023-04-07T15:48:24.322Z,13.97
2023-04-07T15:50:53.988Z,13.94
2023-04-07T15:53:24.693Z,13.92
2023-04-07T15:55:55.094Z,13.92
2023-04-07T15:58:24.502Z,13.92
2023-04-07T16:00:53.418Z,13.86
2023-04-07T16:03:28.653Z,13.83
2023-04-07T16:06:00.142Z,13.81
2023-04-07T16:08:28.954Z,13.80
2023-04-07T16:10:58.907Z,13.78
2023-04-07T16:13:33.734Z,13.74
2023-04-07T16:16:09.345Z,13.69
2023-04-07T16:18:44.378Z,13.61
2023-04-07T16:21:33.042Z,13.55
2023-04-07T16:24:18.416Z,13.48
2023-04-07T16:26:51.479Z,13.40
2023-04-07T16:29:20.588Z,13.30
2023-04-07T16:31:57.505Z,13.15
2023-04-07T16:34:32.165Z,12.99
2023-04-07T16:37:04.754Z,12.87
2023-04-07T16:39:57.514Z,12.76
2023-04-07T16:42:27.043Z,12.65
2023-04-07T16:44:57.736Z,12.58
2023-04-07T16:47:26.578Z,12.52
2023-04-07T16:50:00.069Z,12.48
2023-04-07T16:52:41.422Z,12.44
2023-04-07T16:55:10.937Z,12.38
2023-04-07T16:57:40.129Z,12.33
2023-04-07T17:00:11.246Z,12.30
2023-04-07T17:02:46.509Z,12.27
